This is the latest recevied weather packets stored in our database for station/object 9A7DI-13. If no packets are shown the sender has not sent any weather packets the latest 10 day(s).
| Time | Temp. | Humidity | Pressure | Rain* | Wind** | Luminosity | Snow |
|---|---|---|---|---|---|---|---|
| 1777852032 | 8.89° C | 65% | 1027 hPa | - | - | - | - |
| 1777851432 | 9.44° C | 64% | 1027.1 hPa | - | - | - | - |
| 1777850832 | 9.44° C | 63% | 1027.1 hPa | - | - | - | - |
| 1777850232 | 10° C | 61% | 1027.1 hPa | - | - | - | - |
| 1777849632 | 10° C | 62% | 1027 hPa | - | - | - | - |
| 1777849032 | 10.56° C | 61% | 1027 hPa | - | - | - | - |
| 1777848432 | 10° C | 64% | 1027 hPa | - | - | - | - |
| 1777847832 | 10.56° C | 63% | 1027.2 hPa | - | - | - | - |
| 1777847232 | 10° C | 64% | 1027.2 hPa | - | - | - | - |
| 1777846632 | 10° C | 66% | 1027.2 hPa | - | - | - | - |
| 1777846032 | 10° C | 65% | 1027.3 hPa | - | - | - | - |
| 1777845432 | 10.56° C | 64% | 1027.3 hPa | - | - | - | - |
| 1777844832 | 10° C | 64% | 1027.2 hPa | - | - | - | - |
| 1777844232 | 11.11° C | 61% | 1027.2 hPa | - | - | - | - |
| 1777843632 | 11.11° C | 62% | 1027.1 hPa | - | - | - | - |
| 1777843032 | 11.11° C | 65% | 1027.2 hPa | - | - | - | - |
| 1777842432 | 11.11° C | 64% | 1027.2 hPa | - | - | - | - |
| 1777841832 | 10.56° C | 63% | 1027.1 hPa | - | - | - | - |
| 1777841232 | 11.67° C | 61% | 1027 hPa | - | - | - | - |
| 1777840632 | 11.67° C | 60% | 1027.1 hPa | - | - | - | - |
| 1777840032 | 12.22° C | 58% | 1027.1 hPa | - | - | - | - |
| 1777838832 | 12.22° C | 59% | 1027.2 hPa | - | - | - | - |
| 1777838233 | 12.22° C | 58% | 1027 hPa | - | - | - | - |
| 1777837632 | 12.78° C | 57% | 1027.1 hPa | - | - | - | - |
| 1777837033 | 13.33° C | 55% | 1027 hPa | - | - | - | - |
* Rain since midnight (hover to see other rain measurements)
** Current wind speed in m/s (hover to see current wind gust speed)